GCXO Airport Information

Runway Information
Runway 12 Length 11155 ft width 148 ft
Elevation 2060 ft Threshold 0 ft Heading 111
Runway 30 Length 11155 ft Width 148 ft
Elevation 2002 ft Threshold 0 ft Heading 291
Airport Frequencies
Type APP Name APP Frequency 119.7 MHZ
Type ATIS Name ATIS Frequency 118.575 MHZ
Type GND Name GND Frequency 121.7 MHZ
Type TWR Name TWR Frequency 118.7 MHZ
Airport Navaids
Type VOR-DME Name Tenerife Norte Frequency 117700 KHZ
Type NDB Name Tenerife Norte Frequency 410 KHZ
Airport Weather Information & NOTAM
ADDS - METARS form results

(0716 UTC 17 October 2021)
Data provider http://aviationweather.gov/metar/data/
 
METAR text: GCXO 170700Z 17007KT CAVOK 21/07 Q1019 NOSIG
Conditions at: GCXO (TENERIFE/LOS ROD, ES) observed 0700 UTC 17 October 2021
Temperature: 21.0°C (70°F)
Dewpoint: 7.0°C (45°F) [RH = 40%]
Pressure (altimeter): 30.09 inches Hg (1019.0 mb)
Winds: from the S (170 degrees) at 8 MPH (7 knots; 3.6 m/s)
Visibility: 6 or more miles (10+ km)
Ceiling: ceiling and visibility are OK
Clouds: unknown
Weather: no significant weather observed at this time

METAR text: GCXO 170630Z 16004KT CAVOK 20/04 Q1018 NOSIG
Conditions at: GCXO (TENERIFE/LOS ROD, ES) observed 0630 UTC 17 October 2021
Temperature: 20.0°C (68°F)
Dewpoint: 4.0°C (39°F) [RH = 35%]
Pressure (altimeter): 30.06 inches Hg (1018.0 mb)
Winds: from the SSE (160 degrees) at 5 MPH (4 knots; 2.1 m/s)
Visibility: 6 or more miles (10+ km)
Ceiling: ceiling and visibility are OK
Clouds: unknown
Weather: no significant weather observed at this time

Forecast for: GCXO (TENERIFE/LOS ROD, ES)
Text: TAF GCXO 170200Z 1703/1803 24004KT 9999 SCT005 TX31/1714Z TN17/1706Z
Forecast period: 0300 to 0900 UTC 17 October 2021
Forecast type: FROM: standard forecast or significant change
Winds: from the WSW (240 degrees) at 5 MPH (4 knots; 2.1 m/s)
Visibility: 6 or more miles (10+ km)
Ceiling: at least 12,000 feet AGL
Clouds: scattered clouds at 500 feet AGL
Weather: no significant weather forecast for this period
Text: BECMG 1709/1711 12010KT
Forecast period: 0900 UTC 17 October 2021 to 0300 UTC 18 October 2021
Forecast type: BECOMING: Conditions expected to become as follows by 1100 UTC 17 October 2021
Winds: from the ESE (120 degrees) at 12 MPH (10 knots; 5.1 m/s)
Visibility: 6 or more miles (10+ km)
Ceiling: at least 12,000 feet AGL
Clouds: scattered clouds at 500 feet AGL
Weather: no significant weather forecast for this period